createdAt,value
2022-12-22T00:00:41.527Z,0.00
2022-12-22T00:01:48.015Z,0.00
2022-12-22T00:02:42.634Z,0.00
2022-12-22T00:03:41.602Z,0.00
2022-12-22T00:04:41.484Z,0.00
2022-12-22T00:05:41.495Z,0.00
2022-12-22T00:06:41.460Z,0.00
2022-12-22T00:07:41.467Z,0.00
2022-12-22T00:08:41.438Z,0.00
2022-12-22T00:09:41.431Z,0.00
2022-12-22T00:10:41.410Z,0.00
2022-12-22T00:11:41.400Z,0.00
2022-12-22T00:12:41.401Z,0.00
2022-12-22T00:13:41.389Z,0.00
2022-12-22T00:14:41.372Z,0.00
2022-12-22T00:15:41.361Z,0.00
2022-12-22T00:16:41.397Z,0.00
2022-12-22T00:17:41.347Z,0.00
2022-12-22T00:18:41.332Z,0.00
2022-12-22T00:19:41.317Z,0.00
2022-12-22T00:20:41.328Z,0.00
2022-12-22T00:21:41.293Z,0.00
2022-12-22T00:22:41.301Z,0.00
2022-12-22T00:23:41.276Z,0.00
2022-12-22T00:24:41.264Z,0.00
2022-12-22T00:25:41.263Z,0.00
2022-12-22T00:26:41.244Z,0.00
2022-12-22T00:27:45.352Z,0.00
2022-12-22T00:28:41.253Z,0.00
2022-12-22T00:29:41.208Z,0.00
2022-12-22T00:30:41.222Z,0.00
2022-12-22T00:31:41.201Z,0.00
2022-12-22T00:32:41.184Z,0.00
2022-12-22T00:33:41.196Z,0.00
2022-12-22T00:34:41.162Z,0.00
2022-12-22T00:35:41.185Z,0.00
2022-12-22T00:36:41.154Z,0.00
2022-12-22T00:37:41.133Z,0.00
2022-12-22T00:38:41.136Z,0.00
2022-12-22T00:39:41.114Z,0.00
2022-12-22T00:40:41.101Z,0.00
2022-12-22T00:41:41.077Z,0.00
2022-12-22T00:42:41.079Z,0.00
2022-12-22T00:43:41.076Z,0.00
2022-12-22T00:44:41.056Z,0.00
2022-12-22T00:45:41.064Z,0.00
2022-12-22T00:46:41.027Z,0.00
2022-12-22T00:47:41.034Z,0.00
2022-12-22T00:48:41.008Z,0.00
2022-12-22T00:49:40.999Z,0.00
2022-12-22T00:50:40.989Z,0.00
2022-12-22T00:51:41.006Z,0.00
2022-12-22T00:52:40.967Z,0.00
2022-12-22T00:53:40.962Z,0.00
2022-12-22T00:54:40.954Z,0.00
2022-12-22T00:55:40.930Z,0.00
2022-12-22T00:56:40.929Z,0.00
2022-12-22T00:57:40.919Z,0.00
2022-12-22T00:58:40.899Z,0.00
2022-12-22T00:59:40.935Z,0.00
2022-12-22T01:00:40.900Z,0.00
2022-12-22T01:01:40.935Z,0.00
2022-12-22T01:02:40.998Z,0.00
2022-12-22T01:03:40.912Z,0.00
2022-12-22T01:04:40.841Z,0.00
2022-12-22T01:05:40.840Z,0.00
2022-12-22T01:06:40.821Z,0.00
2022-12-22T01:07:40.822Z,0.00
2022-12-22T01:08:40.811Z,0.00
2022-12-22T01:09:40.797Z,0.00
2022-12-22T01:10:40.812Z,0.00
2022-12-22T01:11:40.774Z,0.00
2022-12-22T01:12:40.753Z,0.00
2022-12-22T01:13:40.743Z,0.00
2022-12-22T01:14:40.732Z,0.00
2022-12-22T01:15:40.790Z,0.00
2022-12-22T01:16:40.713Z,0.00
2022-12-22T01:17:40.711Z,0.00
2022-12-22T01:18:40.695Z,0.00
2022-12-22T01:19:40.685Z,0.00
2022-12-22T01:20:40.663Z,0.00
2022-12-22T01:21:40.653Z,0.00
2022-12-22T01:22:40.664Z,0.00
2022-12-22T01:23:40.633Z,0.00
2022-12-22T01:24:40.623Z,0.00
2022-12-22T01:25:40.615Z,0.00
2022-12-22T01:26:40.610Z,0.00
2022-12-22T01:27:40.585Z,0.00
2022-12-22T01:28:40.596Z,0.00
2022-12-22T01:29:40.587Z,0.00
2022-12-22T01:30:40.657Z,0.00
2022-12-22T01:31:40.561Z,0.00
2022-12-22T01:32:40.549Z,0.00
2022-12-22T01:33:40.539Z,0.00
2022-12-22T01:34:40.540Z,0.00
2022-12-22T01:35:40.505Z,0.00
2022-12-22T01:36:40.506Z,0.00
2022-12-22T01:37:40.489Z,0.00
2022-12-22T01:38:40.488Z,0.00
2022-12-22T01:39:40.475Z,0.00
2022-12-22T01:40:40.456Z,0.00
2022-12-22T01:41:40.446Z,0.00
2022-12-22T01:42:40.437Z,0.00
2022-12-22T01:43:40.418Z,0.00
2022-12-22T01:44:40.433Z,0.00
2022-12-22T01:45:40.397Z,0.00
2022-12-22T01:46:40.422Z,0.00
2022-12-22T01:47:40.389Z,0.00
2022-12-22T01:48:40.367Z,0.00
2022-12-22T01:49:40.348Z,0.00
2022-12-22T01:50:40.347Z,0.00
2022-12-22T01:51:40.351Z,0.00
2022-12-22T01:52:40.329Z,0.00
2022-12-22T01:53:40.329Z,0.00
2022-12-22T01:54:40.310Z,0.00
2022-12-22T01:55:40.309Z,0.00
2022-12-22T01:56:40.309Z,0.00
2022-12-22T01:57:40.270Z,0.00
2022-12-22T01:58:40.260Z,0.00
2022-12-22T01:59:40.306Z,0.00
2022-12-22T02:00:40.238Z,0.00
2022-12-22T02:01:40.384Z,0.00
2022-12-22T02:02:40.386Z,0.00
2022-12-22T02:03:40.290Z,0.00
2022-12-22T02:04:40.216Z,0.00
2022-12-22T02:05:40.202Z,0.00
2022-12-22T02:06:40.181Z,0.00
2022-12-22T02:07:40.161Z,0.00
2022-12-22T02:08:40.169Z,0.00
2022-12-22T02:09:40.141Z,0.00
2022-12-22T02:10:40.135Z,0.00
2022-12-22T02:11:40.132Z,0.00
2022-12-22T02:12:40.134Z,0.00
2022-12-22T02:13:40.105Z,0.00
2022-12-22T02:14:40.093Z,0.00
2022-12-22T02:15:40.140Z,0.00
2022-12-22T02:16:40.074Z,0.00
2022-12-22T02:17:40.061Z,0.00
2022-12-22T02:18:40.064Z,0.00
2022-12-22T02:19:40.032Z,0.00
2022-12-22T02:20:40.034Z,0.00
2022-12-22T02:21:40.025Z,0.00
2022-12-22T02:22:40.027Z,0.00
2022-12-22T02:23:39.993Z,0.00
2022-12-22T02:24:39.987Z,0.00
2022-12-22T02:25:40.003Z,0.00
2022-12-22T02:26:39.972Z,0.00
2022-12-22T02:27:39.954Z,0.00
2022-12-22T02:28:39.979Z,0.00
2022-12-22T02:29:39.957Z,0.00
2022-12-22T02:30:39.914Z,0.00
2022-12-22T02:31:39.947Z,0.00
2022-12-22T02:32:39.904Z,0.00
2022-12-22T02:33:39.910Z,0.00
2022-12-22T02:34:39.888Z,0.00
2022-12-22T02:35:39.905Z,0.00
2022-12-22T02:36:39.888Z,0.00
2022-12-22T02:37:39.878Z,0.00
2022-12-22T02:38:39.827Z,0.00
2022-12-22T02:39:39.825Z,0.00
2022-12-22T02:40:41.757Z,0.00
2022-12-22T02:41:39.804Z,0.00
2022-12-22T02:42:39.817Z,0.00
2022-12-22T02:43:39.781Z,0.00
2022-12-22T02:44:39.789Z,0.00
2022-12-22T02:45:39.784Z,0.00
2022-12-22T02:46:39.827Z,0.00
2022-12-22T02:47:39.803Z,0.00
2022-12-22T02:48:39.740Z,0.00
2022-12-22T02:49:39.744Z,0.00
2022-12-22T02:50:39.720Z,0.00
2022-12-22T02:51:39.729Z,0.00
2022-12-22T02:52:39.667Z,0.00
2022-12-22T02:53:39.698Z,0.00
2022-12-22T02:54:39.679Z,0.00
2022-12-22T02:55:39.688Z,0.00
2022-12-22T02:56:39.631Z,0.00
2022-12-22T02:57:39.629Z,0.00
2022-12-22T02:58:39.658Z,0.00
2022-12-22T02:59:39.619Z,0.00
2022-12-22T03:00:39.597Z,0.00
2022-12-22T03:01:39.735Z,0.00
2022-12-22T03:02:39.743Z,0.00
2022-12-22T03:03:39.700Z,0.00
2022-12-22T03:04:39.560Z,0.00
2022-12-22T03:05:39.549Z,0.00
2022-12-22T03:06:39.564Z,0.00
2022-12-22T03:07:39.554Z,0.00
2022-12-22T03:08:39.529Z,0.00
2022-12-22T03:09:39.516Z,0.00
2022-12-22T03:10:39.485Z,0.00
2022-12-22T03:11:39.482Z,0.00
2022-12-22T03:12:39.485Z,0.00
2022-12-22T03:13:39.528Z,0.00
2022-12-22T03:14:39.441Z,0.00
2022-12-22T03:15:39.468Z,0.00
2022-12-22T03:16:39.515Z,0.00
2022-12-22T03:17:39.423Z,0.00
2022-12-22T03:18:39.414Z,0.00
2022-12-22T03:19:39.410Z,0.00
2022-12-22T03:20:39.389Z,0.00
2022-12-22T03:21:39.385Z,0.00
2022-12-22T03:22:39.372Z,0.00
2022-12-22T03:23:39.356Z,0.00
2022-12-22T03:24:39.354Z,0.00
2022-12-22T03:25:39.350Z,0.00
2022-12-22T03:26:39.347Z,0.00
2022-12-22T03:27:39.335Z,0.00
2022-12-22T03:28:39.315Z,0.00
2022-12-22T03:29:39.308Z,0.00
2022-12-22T03:30:39.299Z,0.00
2022-12-22T03:31:39.319Z,0.00
2022-12-22T03:32:39.275Z,0.00
2022-12-22T03:33:39.266Z,0.00
2022-12-22T03:34:39.240Z,0.00
2022-12-22T03:35:39.236Z,0.00
2022-12-22T03:36:39.257Z,0.00
2022-12-22T03:37:39.206Z,0.00
2022-12-22T03:38:39.216Z,0.00
2022-12-22T03:39:39.184Z,0.00
2022-12-22T03:40:39.167Z,0.00
2022-12-22T03:41:39.155Z,0.00
2022-12-22T03:42:39.185Z,0.00
2022-12-22T03:43:39.162Z,0.00
2022-12-22T03:44:39.136Z,0.00
2022-12-22T03:45:39.113Z,0.00
2022-12-22T03:46:39.179Z,0.00
2022-12-22T03:47:39.092Z,0.00
2022-12-22T03:48:39.108Z,0.00
2022-12-22T03:49:39.086Z,0.00
2022-12-22T03:50:39.070Z,0.00
2022-12-22T03:51:39.059Z,0.00
2022-12-22T03:52:39.040Z,0.00
2022-12-22T03:53:39.057Z,0.00
2022-12-22T03:54:39.024Z,0.00
2022-12-22T03:55:39.025Z,0.00
2022-12-22T03:56:39.018Z,0.00
2022-12-22T03:57:38.989Z,0.00
2022-12-22T03:58:39.020Z,0.00
2022-12-22T03:59:38.961Z,0.00
2022-12-22T04:00:38.986Z,0.00
2022-12-22T04:01:39.210Z,0.00
2022-12-22T04:02:39.054Z,0.00
2022-12-22T04:03:38.938Z,0.00
2022-12-22T04:04:38.939Z,0.00
2022-12-22T04:05:38.914Z,0.00
2022-12-22T04:06:38.913Z,0.00
2022-12-22T04:07:38.879Z,0.00
2022-12-22T04:08:38.911Z,0.00
2022-12-22T04:09:38.880Z,0.00
2022-12-22T04:10:38.865Z,0.00
2022-12-22T04:11:38.831Z,0.00
2022-12-22T04:12:38.851Z,0.00
2022-12-22T04:13:38.811Z,0.00
2022-12-22T04:14:38.825Z,0.00
2022-12-22T04:15:38.807Z,0.00
2022-12-22T04:16:38.824Z,0.00
2022-12-22T04:17:38.772Z,0.00
2022-12-22T04:18:38.771Z,0.00
2022-12-22T04:19:38.787Z,0.00
2022-12-22T04:20:38.744Z,0.00
2022-12-22T04:21:38.740Z,0.00
2022-12-22T04:22:38.747Z,0.00
2022-12-22T04:23:38.724Z,0.00
2022-12-22T04:24:38.718Z,0.00
2022-12-22T04:25:38.683Z,0.00
2022-12-22T04:26:38.685Z,0.00
2022-12-22T04:27:38.668Z,0.00
2022-12-22T04:28:38.712Z,0.00
2022-12-22T04:29:38.678Z,0.00
2022-12-22T04:30:38.637Z,0.00
2022-12-22T04:31:38.649Z,0.00
2022-12-22T04:32:38.650Z,0.00
2022-12-22T04:33:38.604Z,0.00
2022-12-22T04:34:38.622Z,0.00
2022-12-22T04:35:38.616Z,0.00
2022-12-22T04:36:38.638Z,0.00
2022-12-22T04:37:38.560Z,0.00
2022-12-22T04:38:38.568Z,0.00
2022-12-22T04:39:38.554Z,0.00
2022-12-22T04:40:38.538Z,0.00
2022-12-22T04:41:38.524Z,0.00
2022-12-22T04:42:38.522Z,0.00
2022-12-22T04:43:38.532Z,0.00
2022-12-22T04:44:38.510Z,0.00
2022-12-22T04:45:38.582Z,0.00
2022-12-22T04:46:38.469Z,0.00
2022-12-22T04:47:38.458Z,0.00
2022-12-22T04:48:38.480Z,0.00
2022-12-22T04:49:38.448Z,0.00
2022-12-22T04:50:38.417Z,0.00
2022-12-22T04:51:38.419Z,0.00
2022-12-22T04:52:38.401Z,0.00
2022-12-22T04:53:38.420Z,0.00
2022-12-22T04:54:38.380Z,0.00
2022-12-22T04:55:38.377Z,0.00
2022-12-22T04:56:38.379Z,0.00
2022-12-22T04:57:40.900Z,0.00
2022-12-22T04:58:38.359Z,0.00
2022-12-22T04:59:38.329Z,0.00
2022-12-22T05:00:38.343Z,0.00
2022-12-22T05:01:38.362Z,0.00
2022-12-22T05:02:38.502Z,0.00
2022-12-22T05:03:38.466Z,0.00
2022-12-22T05:04:38.272Z,0.00
2022-12-22T05:05:38.280Z,0.00
2022-12-22T05:06:38.284Z,0.00
2022-12-22T05:07:38.253Z,0.00
2022-12-22T05:08:39.403Z,0.00
2022-12-22T05:09:38.223Z,0.00
2022-12-22T05:10:38.260Z,0.00
2022-12-22T05:11:38.255Z,0.00
2022-12-22T05:12:38.227Z,0.00
2022-12-22T05:13:38.201Z,0.00
2022-12-22T05:14:38.233Z,0.00
2022-12-22T05:15:38.219Z,0.00
2022-12-22T05:16:38.179Z,0.00
2022-12-22T05:17:38.140Z,0.00
2022-12-22T05:18:38.138Z,0.00
2022-12-22T05:19:38.122Z,0.00
2022-12-22T05:20:38.135Z,0.00
2022-12-22T05:21:38.091Z,0.00
2022-12-22T05:22:38.108Z,0.00
2022-12-22T05:23:38.065Z,0.00
2022-12-22T05:24:38.095Z,0.00
2022-12-22T05:25:38.085Z,0.00
2022-12-22T05:26:38.075Z,0.00
2022-12-22T05:27:38.048Z,0.00
2022-12-22T05:28:38.037Z,0.00
2022-12-22T05:29:38.017Z,0.00
2022-12-22T05:30:38.091Z,0.00
2022-12-22T05:31:41.842Z,0.00
2022-12-22T05:32:39.089Z,0.00
2022-12-22T05:33:38.077Z,0.00
2022-12-22T05:34:37.993Z,0.00
2022-12-22T05:35:37.956Z,0.00
2022-12-22T05:36:37.956Z,0.00
2022-12-22T05:37:37.944Z,0.00
2022-12-22T05:38:37.955Z,0.00
2022-12-22T05:39:37.902Z,0.00
2022-12-22T05:40:37.936Z,0.00
2022-12-22T05:41:37.886Z,0.00
2022-12-22T05:42:37.874Z,0.00
2022-12-22T05:43:37.869Z,0.00
2022-12-22T05:44:37.868Z,0.00
2022-12-22T05:45:38.527Z,0.00
2022-12-22T05:46:37.915Z,0.00
2022-12-22T05:47:38.930Z,0.00
2022-12-22T05:48:39.407Z,0.00
2022-12-22T05:49:38.526Z,0.00
2022-12-22T05:50:37.857Z,0.00
2022-12-22T05:51:38.071Z,0.00
2022-12-22T05:52:37.825Z,0.00
2022-12-22T05:53:38.886Z,0.00
2022-12-22T05:54:37.776Z,0.00
2022-12-22T05:55:38.451Z,0.00
2022-12-22T05:56:37.768Z,0.00
2022-12-22T05:57:38.439Z,0.00
2022-12-22T05:58:37.723Z,0.00
2022-12-22T05:59:37.729Z,0.00
2022-12-22T06:00:37.705Z,0.00
2022-12-22T06:01:37.737Z,0.00
2022-12-22T06:02:37.806Z,0.00
2022-12-22T06:03:37.808Z,0.00
2022-12-22T06:04:37.651Z,0.00
2022-12-22T06:05:37.622Z,0.00
2022-12-22T06:06:37.640Z,0.00
2022-12-22T06:07:37.621Z,0.00
2022-12-22T06:08:37.641Z,0.00
2022-12-22T06:09:37.582Z,0.00
2022-12-22T06:10:37.594Z,0.00
2022-12-22T06:11:37.560Z,0.00
2022-12-22T06:12:37.543Z,0.00
2022-12-22T06:13:37.532Z,0.00
2022-12-22T06:14:37.565Z,0.00
2022-12-22T06:15:37.559Z,0.00
2022-12-22T06:16:38.276Z,0.00
2022-12-22T06:17:43.900Z,0.00
2022-12-22T06:18:38.491Z,0.00
2022-12-22T06:19:37.514Z,0.00
2022-12-22T06:20:37.477Z,0.00
2022-12-22T06:21:37.487Z,0.00
2022-12-22T06:22:37.458Z,0.00
2022-12-22T06:23:37.443Z,0.00
2022-12-22T06:24:37.448Z,0.00
2022-12-22T06:25:37.415Z,0.00
2022-12-22T06:26:37.442Z,0.00
2022-12-22T06:27:37.400Z,0.00
2022-12-22T06:28:37.384Z,0.00
2022-12-22T06:29:37.365Z,0.00
2022-12-22T06:30:37.370Z,0.00
2022-12-22T06:31:37.409Z,0.00
2022-12-22T06:32:37.389Z,0.00
2022-12-22T06:33:37.316Z,0.00
2022-12-22T06:34:37.337Z,0.00
2022-12-22T06:35:37.318Z,0.00
2022-12-22T06:36:37.320Z,0.00
2022-12-22T06:37:37.311Z,0.00
2022-12-22T06:38:37.290Z,0.00
2022-12-22T06:39:37.277Z,0.00
2022-12-22T06:40:37.262Z,0.00
2022-12-22T06:41:37.248Z,0.00
2022-12-22T06:42:37.227Z,0.00
2022-12-22T06:43:37.268Z,0.00
2022-12-22T06:44:37.232Z,0.00
2022-12-22T06:45:37.209Z,0.00
2022-12-22T06:46:37.220Z,0.00
2022-12-22T06:47:37.189Z,4.00
2022-12-22T06:48:37.181Z,4.00
2022-12-22T06:49:37.170Z,4.00
2022-12-22T06:50:37.169Z,0.00
2022-12-22T06:51:37.128Z,4.00
2022-12-22T06:52:37.130Z,0.00
2022-12-22T06:53:37.117Z,4.00
2022-12-22T06:54:37.123Z,8.00
2022-12-22T06:55:37.078Z,4.00
2022-12-22T06:56:37.107Z,8.00
2022-12-22T06:57:37.086Z,8.00
2022-12-22T06:58:37.079Z,8.00
2022-12-22T06:59:37.049Z,8.00
2022-12-22T07:00:37.061Z,12.00
2022-12-22T07:01:37.162Z,12.00
2022-12-22T07:02:37.263Z,16.00
2022-12-22T07:03:37.100Z,20.00
2022-12-22T07:04:37.009Z,24.00
2022-12-22T07:05:37.003Z,24.00
2022-12-22T07:06:36.988Z,28.00
2022-12-22T07:07:36.972Z,32.00
2022-12-22T07:08:36.963Z,36.00
2022-12-22T07:09:36.938Z,40.00
2022-12-22T07:10:36.937Z,44.00
2022-12-22T07:11:36.919Z,48.00
2022-12-22T07:12:36.925Z,56.00
2022-12-22T07:13:36.913Z,56.00
2022-12-22T07:14:36.917Z,60.00
2022-12-22T07:15:36.899Z,68.00
2022-12-22T07:16:36.911Z,76.00
2022-12-22T07:17:36.863Z,80.00
2022-12-22T07:18:36.845Z,92.00
2022-12-22T07:19:36.831Z,104.00
2022-12-22T07:20:36.826Z,108.00
2022-12-22T07:21:36.825Z,116.00
2022-12-22T07:22:36.809Z,120.00
2022-12-22T07:23:36.815Z,128.00
2022-12-22T07:24:36.787Z,136.00
2022-12-22T07:25:36.783Z,144.00
2022-12-22T07:26:36.781Z,152.00
2022-12-22T07:27:36.766Z,164.00
2022-12-22T07:28:36.745Z,168.00
2022-12-22T07:29:36.749Z,172.00
2022-12-22T07:30:36.723Z,176.00
2022-12-22T07:31:36.768Z,180.00
2022-12-22T07:32:36.706Z,192.00
2022-12-22T07:33:36.714Z,208.00
2022-12-22T07:34:36.677Z,204.00
2022-12-22T07:35:36.687Z,220.00
2022-12-22T07:36:36.710Z,204.00
2022-12-22T07:37:36.664Z,204.00
2022-12-22T07:38:36.659Z,236.00
2022-12-22T07:39:36.639Z,248.00
2022-12-22T07:40:41.366Z,272.00
2022-12-22T07:41:37.594Z,312.00
2022-12-22T07:42:36.620Z,264.00
2022-12-22T07:43:36.587Z,284.00
2022-12-22T07:44:36.570Z,276.00
2022-12-22T07:45:36.711Z,264.00
2022-12-22T07:46:36.674Z,264.00
2022-12-22T07:47:36.549Z,272.00
2022-12-22T07:48:36.517Z,276.00
2022-12-22T07:49:36.519Z,276.00
2022-12-22T07:50:36.516Z,280.00
2022-12-22T07:51:36.492Z,276.00
2022-12-22T07:52:36.500Z,268.00
2022-12-22T07:53:36.502Z,312.00
2022-12-22T07:54:41.469Z,336.00
2022-12-22T07:55:37.511Z,396.00
2022-12-22T07:56:36.431Z,472.00
2022-12-22T07:57:36.477Z,444.00
2022-12-22T07:58:36.421Z,420.00
2022-12-22T07:59:36.422Z,384.00
2022-12-22T08:00:36.439Z,368.00
2022-12-22T08:01:36.507Z,364.00
2022-12-22T08:02:39.085Z,372.00
2022-12-22T08:03:36.403Z,384.00
2022-12-22T08:04:36.398Z,412.00
2022-12-22T08:05:36.361Z,432.00
2022-12-22T08:06:36.349Z,432.00
2022-12-22T08:07:36.334Z,436.00
2022-12-22T08:08:36.330Z,452.00
2022-12-22T08:09:36.314Z,456.00
2022-12-22T08:10:36.315Z,480.00
2022-12-22T08:11:36.328Z,492.00
2022-12-22T08:12:36.305Z,488.00
2022-12-22T08:13:36.293Z,488.00
2022-12-22T08:14:36.251Z,488.00
2022-12-22T08:15:36.245Z,488.00
2022-12-22T08:16:36.307Z,488.00
2022-12-22T08:17:36.248Z,492.00
2022-12-22T08:18:36.204Z,500.00
2022-12-22T08:19:36.196Z,508.00
2022-12-22T08:20:36.225Z,508.00
2022-12-22T08:21:36.189Z,504.00
2022-12-22T08:22:36.175Z,488.00
2022-12-22T08:23:36.159Z,484.00
2022-12-22T08:24:36.156Z,484.00
2022-12-22T08:25:36.150Z,472.00
2022-12-22T08:26:36.166Z,464.00
2022-12-22T08:27:36.117Z,484.00
2022-12-22T08:28:36.097Z,512.00
2022-12-22T08:29:36.107Z,540.00
2022-12-22T08:30:36.092Z,552.00
2022-12-22T08:31:36.120Z,572.00
2022-12-22T08:32:36.066Z,548.00
2022-12-22T08:33:36.045Z,492.00
2022-12-22T08:34:36.051Z,484.00
2022-12-22T08:35:36.039Z,488.00
2022-12-22T08:36:36.007Z,532.00
2022-12-22T08:37:36.029Z,620.00
2022-12-22T08:38:36.000Z,616.00
2022-12-22T08:39:36.010Z,612.00
2022-12-22T08:40:35.997Z,792.00
2022-12-22T08:41:35.961Z,920.00
2022-12-22T08:42:35.958Z,972.00
2022-12-22T08:43:35.938Z,980.00
2022-12-22T08:44:35.950Z,952.00
2022-12-22T08:45:35.938Z,940.00
2022-12-22T08:46:35.939Z,956.00
2022-12-22T08:47:35.980Z,936.00
2022-12-22T08:48:35.880Z,948.00
2022-12-22T08:49:35.879Z,940.00
2022-12-22T08:50:35.880Z,944.00
2022-12-22T08:51:35.862Z,964.00
2022-12-22T08:52:35.859Z,1064.00
2022-12-22T08:54:04.056Z,1044.00
2022-12-22T08:54:36.819Z,868.00
2022-12-22T08:55:35.812Z,768.00
2022-12-22T08:56:35.801Z,704.00
2022-12-22T08:57:35.792Z,660.00
2022-12-22T08:58:35.806Z,620.00
2022-12-22T08:59:35.773Z,632.00
2022-12-22T09:00:35.799Z,680.00
2022-12-22T09:01:35.850Z,784.00
2022-12-22T09:02:35.950Z,884.00
2022-12-22T09:03:35.759Z,1060.00
2022-12-22T09:04:35.725Z,1208.00
2022-12-22T09:05:35.713Z,1320.00
2022-12-22T09:06:40.889Z,1500.00
2022-12-22T09:07:36.688Z,1560.00
2022-12-22T09:08:35.684Z,1528.00
2022-12-22T09:09:35.734Z,1448.00
2022-12-22T09:10:35.643Z,1584.00
2022-12-22T09:11:35.663Z,1568.00
2022-12-22T09:12:35.634Z,1708.00
2022-12-22T09:13:35.634Z,1408.00
2022-12-22T09:14:35.617Z,1076.00
2022-12-22T09:15:35.622Z,896.00
2022-12-22T09:16:35.690Z,720.00
2022-12-22T09:17:35.575Z,552.00
2022-12-22T09:18:35.591Z,424.00
2022-12-22T09:19:35.594Z,316.00
2022-12-22T09:20:35.554Z,252.00
2022-12-22T09:21:35.562Z,192.00
2022-12-22T09:22:35.552Z,196.00
2022-12-22T09:23:35.556Z,200.00
2022-12-22T09:24:35.574Z,256.00
2022-12-22T09:25:35.496Z,292.00
2022-12-22T09:26:35.486Z,340.00
2022-12-22T09:27:35.497Z,440.00
2022-12-22T09:28:35.466Z,500.00
2022-12-22T09:29:35.466Z,564.00
2022-12-22T09:30:35.468Z,636.00
2022-12-22T09:31:35.476Z,780.00
2022-12-22T09:32:35.463Z,944.00
2022-12-22T09:33:35.419Z,996.00
2022-12-22T09:34:35.408Z,1136.00
2022-12-22T09:35:35.391Z,1488.00
2022-12-22T09:36:35.379Z,1424.00
2022-12-22T09:37:35.400Z,1056.00
2022-12-22T09:38:35.368Z,784.00
2022-12-22T09:39:36.061Z,700.00
2022-12-22T09:40:35.359Z,672.00
2022-12-22T09:41:35.346Z,824.00
2022-12-22T09:42:35.330Z,1000.00
2022-12-22T09:43:35.319Z,1284.00
2022-12-22T09:44:35.302Z,1332.00
2022-12-22T09:45:35.345Z,1264.00
2022-12-22T09:46:35.275Z,1088.00
2022-12-22T09:47:35.269Z,1076.00
2022-12-22T09:48:35.247Z,1112.00
2022-12-22T09:49:35.259Z,904.00
2022-12-22T09:50:35.220Z,816.00
2022-12-22T09:51:35.222Z,672.00
2022-12-22T09:52:35.220Z,640.00
2022-12-22T09:53:35.191Z,612.00
2022-12-22T09:54:35.186Z,640.00
2022-12-22T09:55:35.191Z,900.00
2022-12-22T09:56:35.172Z,904.00
2022-12-22T09:57:35.162Z,780.00
2022-12-22T09:58:35.141Z,776.00
2022-12-22T09:59:35.144Z,912.00
2022-12-22T10:00:35.136Z,960.00
2022-12-22T10:01:35.194Z,940.00
2022-12-22T10:02:35.186Z,920.00
2022-12-22T10:03:35.160Z,920.00
2022-12-22T10:04:35.094Z,1004.00
2022-12-22T10:05:35.081Z,1212.00
2022-12-22T10:06:35.053Z,1216.00
2022-12-22T10:07:35.063Z,1208.00
2022-12-22T10:08:35.066Z,1076.00
2022-12-22T10:09:51.728Z,1120.00
2022-12-22T10:10:36.004Z,1036.00
2022-12-22T10:11:35.024Z,1100.00
2022-12-22T10:12:34.995Z,1368.00
2022-12-22T10:13:35.018Z,1436.00
2022-12-22T10:14:35.025Z,1472.00
2022-12-22T10:15:34.985Z,1660.00
2022-12-22T10:16:35.012Z,1696.00
2022-12-22T10:17:34.935Z,1772.00
2022-12-22T10:18:34.952Z,1652.00
2022-12-22T10:19:34.923Z,1540.00
2022-12-22T10:20:34.931Z,1648.00
2022-12-22T10:21:34.929Z,1928.00
2022-12-22T10:22:34.893Z,2244.00
2022-12-22T10:23:34.876Z,1588.00
2022-12-22T10:24:34.869Z,1476.00
2022-12-22T10:26:00.635Z,1672.00
2022-12-22T10:26:35.856Z,1596.00
2022-12-22T10:27:37.293Z,1368.00
2022-12-22T10:28:35.832Z,1216.00
2022-12-22T10:29:34.867Z,1692.00
2022-12-22T10:30:34.816Z,1272.00
2022-12-22T10:31:35.416Z,1088.00
2022-12-22T10:32:34.797Z,980.00
2022-12-22T10:33:34.811Z,824.00
2022-12-22T10:34:34.779Z,840.00
2022-12-22T10:35:34.758Z,816.00
2022-12-22T10:36:34.763Z,812.00
2022-12-22T10:37:34.731Z,844.00
2022-12-22T10:38:34.727Z,940.00
2022-12-22T10:39:34.743Z,1344.00
2022-12-22T10:40:34.701Z,1844.00
2022-12-22T10:41:34.756Z,1428.00
2022-12-22T10:42:34.693Z,1196.00
2022-12-22T10:43:34.669Z,1428.00
2022-12-22T10:44:34.671Z,2000.00
2022-12-22T10:45:34.674Z,2064.00
2022-12-22T10:46:34.707Z,2036.00
2022-12-22T10:47:34.659Z,1988.00
2022-12-22T10:48:34.617Z,1960.00
2022-12-22T10:50:10.965Z,1608.00
2022-12-22T10:51:10.940Z,1212.00
2022-12-22T10:52:10.920Z,1336.00
2022-12-22T10:53:10.950Z,1900.00
2022-12-22T10:54:10.918Z,2224.00
2022-12-22T10:55:10.926Z,2272.00
2022-12-22T10:56:10.880Z,1824.00
2022-12-22T10:57:10.866Z,1920.00
2022-12-22T10:58:10.875Z,1868.00
2022-12-22T10:59:11.782Z,1512.00
2022-12-22T11:00:10.872Z,1368.00
2022-12-22T11:01:10.857Z,1452.00
2022-12-22T11:02:11.069Z,1560.00
2022-12-22T11:03:10.943Z,1744.00
2022-12-22T11:04:10.842Z,1828.00
2022-12-22T11:05:10.802Z,1896.00
2022-12-22T11:06:10.800Z,1984.00
2022-12-22T11:07:10.765Z,1860.00
2022-12-22T11:08:10.783Z,1660.00
2022-12-22T11:09:32.688Z,1424.00
2022-12-22T11:10:11.733Z,1056.00
2022-12-22T11:11:10.761Z,1252.00
2022-12-22T11:12:10.717Z,1152.00
2022-12-22T11:13:10.724Z,1432.00
2022-12-22T11:14:10.684Z,1272.00
2022-12-22T11:15:10.693Z,1476.00
2022-12-22T11:16:10.710Z,1936.00
2022-12-22T11:17:10.697Z,1912.00
2022-12-22T11:18:10.654Z,1948.00
2022-12-22T11:19:10.642Z,1940.00
2022-12-22T11:20:10.643Z,1936.00
2022-12-22T11:21:10.625Z,1900.00
2022-12-22T11:22:10.611Z,2080.00
2022-12-22T11:23:10.599Z,1796.00
2022-12-22T11:24:10.588Z,1884.00
2022-12-22T11:25:10.593Z,2288.00
2022-12-22T11:26:10.574Z,2392.00
2022-12-22T11:27:10.557Z,2332.00
2022-12-22T11:28:10.549Z,1700.00
2022-12-22T11:29:10.535Z,1724.00
2022-12-22T11:30:10.534Z,1760.00
2022-12-22T11:31:10.593Z,1808.00
2022-12-22T11:32:10.487Z,1812.00
2022-12-22T11:33:10.495Z,1932.00
2022-12-22T11:34:14.495Z,2080.00
2022-12-22T11:35:11.476Z,2060.00
2022-12-22T11:36:10.445Z,2016.00
2022-12-22T11:37:10.435Z,1696.00
2022-12-22T11:38:10.435Z,1572.00
2022-12-22T11:39:10.444Z,1464.00
2022-12-22T11:40:10.421Z,1496.00
2022-12-22T11:41:10.408Z,1496.00
2022-12-22T11:42:10.402Z,1540.00
2022-12-22T11:43:10.379Z,1540.00
2022-12-22T11:44:10.369Z,1616.00
2022-12-22T11:45:10.360Z,1624.00
2022-12-22T11:46:10.408Z,2164.00
2022-12-22T11:47:10.342Z,3268.00
2022-12-22T11:48:10.330Z,12108.00
2022-12-22T11:49:10.322Z,2256.00
2022-12-22T11:51:00.867Z,3092.00
2022-12-22T11:51:11.969Z,3356.00
2022-12-22T11:52:10.297Z,4136.00
2022-12-22T11:53:10.273Z,4072.00
2022-12-22T11:54:11.632Z,4760.00
2022-12-22T11:55:10.238Z,3108.00
2022-12-22T11:56:10.242Z,2828.00
2022-12-22T11:57:10.252Z,3308.00
2022-12-22T11:58:10.224Z,3488.00
2022-12-22T11:59:10.198Z,2772.00
2022-12-22T12:00:10.258Z,3284.00
2022-12-22T12:01:17.954Z,4088.00
2022-12-22T12:02:11.409Z,3772.00
2022-12-22T12:03:10.386Z,3672.00
2022-12-22T12:04:10.228Z,3996.00
2022-12-22T12:05:10.122Z,3772.00
2022-12-22T12:06:10.133Z,3668.00
2022-12-22T12:07:10.123Z,3652.00
2022-12-22T12:08:10.104Z,3868.00
2022-12-22T12:09:10.093Z,4576.00
2022-12-22T12:10:10.104Z,3428.00
2022-12-22T12:11:10.076Z,2848.00
2022-12-22T12:12:10.051Z,2340.00
2022-12-22T12:13:10.055Z,2440.00
2022-12-22T12:14:10.033Z,2644.00
2022-12-22T12:15:10.016Z,2980.00
2022-12-22T12:16:10.069Z,3820.00
2022-12-22T12:17:09.994Z,4956.00
2022-12-22T12:18:10.035Z,4580.00
2022-12-22T12:19:09.974Z,21216.00
2022-12-22T12:20:09.980Z,6760.00
2022-12-22T12:21:09.974Z,19040.00
2022-12-22T12:22:09.996Z,6484.00
2022-12-22T12:23:09.957Z,4828.00
2022-12-22T12:24:09.974Z,6864.00
2022-12-22T12:25:09.915Z,5584.00
2022-12-22T12:26:09.917Z,6176.00
2022-12-22T12:27:09.888Z,7524.00
2022-12-22T12:28:09.911Z,15904.00
2022-12-22T12:29:09.878Z,5244.00
2022-12-22T12:31:10.875Z,3676.00
2022-12-22T12:32:09.908Z,4068.00
2022-12-22T12:33:09.843Z,7948.00
2022-12-22T12:34:09.827Z,4464.00
2022-12-22T12:35:09.817Z,2304.00
2022-12-22T12:36:09.809Z,2464.00
2022-12-22T12:37:09.799Z,2808.00
2022-12-22T12:38:20.628Z,2912.00
2022-12-22T12:39:10.760Z,2864.00
2022-12-22T12:40:09.918Z,2572.00
2022-12-22T12:41:09.739Z,2064.00
2022-12-22T12:42:09.767Z,1732.00
2022-12-22T12:43:16.051Z,1448.00
2022-12-22T12:44:10.711Z,1228.00
2022-12-22T12:45:09.728Z,1224.00
2022-12-22T12:46:09.754Z,1216.00
2022-12-22T12:47:09.801Z,1716.00
2022-12-22T12:48:09.671Z,2000.00
2022-12-22T12:49:09.652Z,1668.00
2022-12-22T12:50:09.719Z,1332.00
2022-12-22T12:51:09.641Z,1084.00